sensor_id;sensor_type;location;lat;lon;timestamp;temperature;humidity
56046;DHT22;41913;51.030;3.706;2022-08-18T00:01:52;19.40;99.90
56046;DHT22;41913;51.030;3.706;2022-08-18T00:04:20;19.40;99.90
56046;DHT22;41913;51.030;3.706;2022-08-18T00:06:49;19.40;99.90
56046;DHT22;41913;51.030;3.706;2022-08-18T00:09:15;19.40;99.90
56046;DHT22;41913;51.030;3.706;2022-08-18T00:11:42;19.40;99.90
56046;DHT22;41913;51.030;3.706;2022-08-18T00:14:19;19.30;99.90
56046;DHT22;41913;51.030;3.706;2022-08-18T00:16:46;19.30;99.90
56046;DHT22;41913;51.030;3.706;2022-08-18T00:19:28;19.30;99.90
56046;DHT22;41913;51.030;3.706;2022-08-18T00:21:57;19.20;99.90
56046;DHT22;41913;51.030;3.706;2022-08-18T00:24:25;19.10;99.90
56046;DHT22;41913;51.030;3.706;2022-08-18T00:26:50;19.10;99.90
56046;DHT22;41913;51.030;3.706;2022-08-18T00:29:17;19.10;99.90
56046;DHT22;41913;51.030;3.706;2022-08-18T00:31:45;19.10;99.90
56046;DHT22;41913;51.030;3.706;2022-08-18T00:34:11;19.10;99.90
56046;DHT22;41913;51.030;3.706;2022-08-18T00:36:36;19.10;99.90
56046;DHT22;41913;51.030;3.706;2022-08-18T00:39:09;19.10;99.90
56046;DHT22;41913;51.030;3.706;2022-08-18T00:41:41;19.10;99.90
56046;DHT22;41913;51.030;3.706;2022-08-18T00:44:07;19.20;99.90
56046;DHT22;41913;51.030;3.706;2022-08-18T00:46:35;19.20;99.90
56046;DHT22;41913;51.030;3.706;2022-08-18T00:49:04;19.20;99.90
56046;DHT22;41913;51.030;3.706;2022-08-18T00:51:48;19.20;99.90
56046;DHT22;41913;51.030;3.706;2022-08-18T00:54:23;19.20;99.90
56046;DHT22;41913;51.030;3.706;2022-08-18T00:56:54;19.20;99.90
56046;DHT22;41913;51.030;3.706;2022-08-18T00:59:50;19.10;99.90
56046;DHT22;41913;51.030;3.706;2022-08-18T01:02:27;19.00;99.90
56046;DHT22;41913;51.030;3.706;2022-08-18T01:05:12;19.00;99.90
56046;DHT22;41913;51.030;3.706;2022-08-18T01:07:42;19.00;99.90
56046;DHT22;41913;51.030;3.706;2022-08-18T01:10:18;19.10;99.90
56046;DHT22;41913;51.030;3.706;2022-08-18T01:12:50;19.10;99.90
56046;DHT22;41913;51.030;3.706;2022-08-18T01:15:19;19.00;99.90
56046;DHT22;41913;51.030;3.706;2022-08-18T01:17:47;19.10;99.90
56046;DHT22;41913;51.030;3.706;2022-08-18T01:21:07;19.00;99.90
56046;DHT22;41913;51.030;3.706;2022-08-18T01:23:54;19.10;99.90
56046;DHT22;41913;51.030;3.706;2022-08-18T01:26:23;19.00;99.90
56046;DHT22;41913;51.030;3.706;2022-08-18T01:28:53;19.00;99.90
56046;DHT22;41913;51.030;3.706;2022-08-18T01:31:32;18.90;99.90
56046;DHT22;41913;51.030;3.706;2022-08-18T01:34:01;18.90;99.90
56046;DHT22;41913;51.030;3.706;2022-08-18T01:36:27;18.90;99.90
56046;DHT22;41913;51.030;3.706;2022-08-18T01:38:56;18.80;99.90
56046;DHT22;41913;51.030;3.706;2022-08-18T01:41:23;18.70;99.90
56046;DHT22;41913;51.030;3.706;2022-08-18T01:43:50;18.70;99.90
56046;DHT22;41913;51.030;3.706;2022-08-18T01:46:20;18.70;99.90
56046;DHT22;41913;51.030;3.706;2022-08-18T01:48:47;18.70;99.90
56046;DHT22;41913;51.030;3.706;2022-08-18T01:51:14;18.70;99.90
56046;DHT22;41913;51.030;3.706;2022-08-18T01:53:41;18.70;99.90
56046;DHT22;41913;51.030;3.706;2022-08-18T01:56:06;18.70;99.90
56046;DHT22;41913;51.030;3.706;2022-08-18T01:58:36;18.70;99.90
56046;DHT22;41913;51.030;3.706;2022-08-18T02:01:03;18.70;99.90
56046;DHT22;41913;51.030;3.706;2022-08-18T02:03:32;18.70;99.90
56046;DHT22;41913;51.030;3.706;2022-08-18T02:06:07;18.60;99.90
56046;DHT22;41913;51.030;3.706;2022-08-18T02:08:36;18.70;99.90
56046;DHT22;41913;51.030;3.706;2022-08-18T02:11:03;18.70;99.90
56046;DHT22;41913;51.030;3.706;2022-08-18T02:13:31;18.60;99.90
56046;DHT22;41913;51.030;3.706;2022-08-18T02:15:58;18.60;99.90
56046;DHT22;41913;51.030;3.706;2022-08-18T02:18:27;18.70;99.90
56046;DHT22;41913;51.030;3.706;2022-08-18T02:20:54;18.80;99.90
56046;DHT22;41913;51.030;3.706;2022-08-18T02:23:23;18.80;99.90
56046;DHT22;41913;51.030;3.706;2022-08-18T02:25:50;18.90;99.90
56046;DHT22;41913;51.030;3.706;2022-08-18T02:28:18;19.00;99.90
56046;DHT22;41913;51.030;3.706;2022-08-18T02:30:44;19.10;99.90
56046;DHT22;41913;51.030;3.706;2022-08-18T02:33:10;19.10;99.90
56046;DHT22;41913;51.030;3.706;2022-08-18T02:35:37;19.10;99.90
56046;DHT22;41913;51.030;3.706;2022-08-18T02:38:05;19.20;99.90
56046;DHT22;41913;51.030;3.706;2022-08-18T02:40:34;19.20;99.90
56046;DHT22;41913;51.030;3.706;2022-08-18T02:43:11;19.10;99.90
56046;DHT22;41913;51.030;3.706;2022-08-18T02:45:37;19.10;99.90
56046;DHT22;41913;51.030;3.706;2022-08-18T02:48:05;19.10;99.90
56046;DHT22;41913;51.030;3.706;2022-08-18T02:50:32;18.80;99.90
56046;DHT22;41913;51.030;3.706;2022-08-18T02:53:01;18.90;99.90
56046;DHT22;41913;51.030;3.706;2022-08-18T02:55:27;18.90;99.90
56046;DHT22;41913;51.030;3.706;2022-08-18T02:57:56;18.80;99.90
56046;DHT22;41913;51.030;3.706;2022-08-18T03:00:22;18.90;99.90
56046;DHT22;41913;51.030;3.706;2022-08-18T03:02:50;18.80;99.90
56046;DHT22;41913;51.030;3.706;2022-08-18T03:05:18;18.90;99.90
56046;DHT22;41913;51.030;3.706;2022-08-18T03:07:46;18.80;99.90
56046;DHT22;41913;51.030;3.706;2022-08-18T03:10:13;18.90;99.90
56046;DHT22;41913;51.030;3.706;2022-08-18T03:12:41;19.00;99.90
56046;DHT22;41913;51.030;3.706;2022-08-18T03:15:08;19.00;99.90
56046;DHT22;41913;51.030;3.706;2022-08-18T03:17:39;18.80;99.90
56046;DHT22;41913;51.030;3.706;2022-08-18T03:20:06;18.70;99.90
56046;DHT22;41913;51.030;3.706;2022-08-18T03:22:36;18.70;99.90
56046;DHT22;41913;51.030;3.706;2022-08-18T03:25:03;18.70;99.90
56046;DHT22;41913;51.030;3.706;2022-08-18T03:27:32;18.70;99.90
56046;DHT22;41913;51.030;3.706;2022-08-18T03:29:57;18.70;99.90
56046;DHT22;41913;51.030;3.706;2022-08-18T03:32:26;18.70;99.90
56046;DHT22;41913;51.030;3.706;2022-08-18T03:34:53;18.60;99.90
56046;DHT22;41913;51.030;3.706;2022-08-18T03:37:19;18.60;99.90
56046;DHT22;41913;51.030;3.706;2022-08-18T03:39:44;18.50;99.90
56046;DHT22;41913;51.030;3.706;2022-08-18T03:42:12;18.50;99.90
56046;DHT22;41913;51.030;3.706;2022-08-18T03:44:38;18.50;99.90
56046;DHT22;41913;51.030;3.706;2022-08-18T03:47:10;18.50;99.90
56046;DHT22;41913;51.030;3.706;2022-08-18T03:49:42;18.50;99.90
56046;DHT22;41913;51.030;3.706;2022-08-18T03:52:08;18.40;99.90
56046;DHT22;41913;51.030;3.706;2022-08-18T03:54:34;18.30;99.90
56046;DHT22;41913;51.030;3.706;2022-08-18T03:57:01;18.30;99.90
56046;DHT22;41913;51.030;3.706;2022-08-18T03:59:28;18.20;99.90
56046;DHT22;41913;51.030;3.706;2022-08-18T04:01:57;18.10;99.90
56046;DHT22;41913;51.030;3.706;2022-08-18T04:04:25;18.10;99.90
56046;DHT22;41913;51.030;3.706;2022-08-18T04:06:56;18.10;99.90
56046;DHT22;41913;51.030;3.706;2022-08-18T04:09:27;18.10;99.90
56046;DHT22;41913;51.030;3.706;2022-08-18T04:11:54;18.20;99.90
56046;DHT22;41913;51.030;3.706;2022-08-18T04:14:24;18.20;99.90
56046;DHT22;41913;51.030;3.706;2022-08-18T04:16:50;18.30;99.90
56046;DHT22;41913;51.030;3.706;2022-08-18T04:19:16;18.40;99.90
56046;DHT22;41913;51.030;3.706;2022-08-18T04:21:44;18.50;99.90
56046;DHT22;41913;51.030;3.706;2022-08-18T04:24:12;18.60;99.90
56046;DHT22;41913;51.030;3.706;2022-08-18T04:26:43;18.70;99.90
56046;DHT22;41913;51.030;3.706;2022-08-18T04:29:13;18.70;99.90
56046;DHT22;41913;51.030;3.706;2022-08-18T04:31:39;18.70;99.90
56046;DHT22;41913;51.030;3.706;2022-08-18T04:34:05;18.60;99.90
56046;DHT22;41913;51.030;3.706;2022-08-18T04:36:32;18.60;99.90
56046;DHT22;41913;51.030;3.706;2022-08-18T04:39:06;18.70;99.90
56046;DHT22;41913;51.030;3.706;2022-08-18T04:41:32;18.50;99.90
56046;DHT22;41913;51.030;3.706;2022-08-18T04:44:03;18.50;99.90
56046;DHT22;41913;51.030;3.706;2022-08-18T04:46:30;18.50;99.90
56046;DHT22;41913;51.030;3.706;2022-08-18T04:49:00;18.40;99.90
56046;DHT22;41913;51.030;3.706;2022-08-18T04:51:28;18.30;99.90
56046;DHT22;41913;51.030;3.706;2022-08-18T04:53:55;18.40;99.90
56046;DHT22;41913;51.030;3.706;2022-08-18T04:56:41;18.40;99.90
56046;DHT22;41913;51.030;3.706;2022-08-18T04:59:11;18.50;99.90
56046;DHT22;41913;51.030;3.706;2022-08-18T05:01:41;18.50;99.90
56046;DHT22;41913;51.030;3.706;2022-08-18T05:04:10;18.60;99.90
56046;DHT22;41913;51.030;3.706;2022-08-18T05:06:40;18.60;99.90
56046;DHT22;41913;51.030;3.706;2022-08-18T05:09:10;18.60;99.90
56046;DHT22;41913;51.030;3.706;2022-08-18T05:11:37;18.60;99.90
56046;DHT22;41913;51.030;3.706;2022-08-18T05:14:07;18.70;99.90
56046;DHT22;41913;51.030;3.706;2022-08-18T05:16:34;18.70;99.90
56046;DHT22;41913;51.030;3.706;2022-08-18T05:19:08;18.80;99.90
56046;DHT22;41913;51.030;3.706;2022-08-18T05:21:37;18.80;99.90
56046;DHT22;41913;51.030;3.706;2022-08-18T05:24:04;18.90;99.90
56046;DHT22;41913;51.030;3.706;2022-08-18T05:26:30;18.90;99.90
56046;DHT22;41913;51.030;3.706;2022-08-18T05:28:58;19.00;99.90
56046;DHT22;41913;51.030;3.706;2022-08-18T05:31:26;19.10;99.90
56046;DHT22;41913;51.030;3.706;2022-08-18T05:33:54;19.10;99.90
56046;DHT22;41913;51.030;3.706;2022-08-18T05:41:27;19.40;99.90
56046;DHT22;41913;51.030;3.706;2022-08-18T05:43:56;19.40;99.90
56046;DHT22;41913;51.030;3.706;2022-08-18T05:46:42;19.50;99.90
56046;DHT22;41913;51.030;3.706;2022-08-18T05:49:12;19.70;99.90
56046;DHT22;41913;51.030;3.706;2022-08-18T05:51:49;19.80;99.90
56046;DHT22;41913;51.030;3.706;2022-08-18T05:54:17;19.80;99.90
56046;DHT22;41913;51.030;3.706;2022-08-18T05:57:12;20.00;99.90
56046;DHT22;41913;51.030;3.706;2022-08-18T05:59:43;20.10;99.90
56046;DHT22;41913;51.030;3.706;2022-08-18T06:02:32;20.20;99.90
56046;DHT22;41913;51.030;3.706;2022-08-18T06:05:04;20.30;99.90
56046;DHT22;41913;51.030;3.706;2022-08-18T06:07:33;20.50;99.90
56046;DHT22;41913;51.030;3.706;2022-08-18T06:10:00;20.60;99.90
56046;DHT22;41913;51.030;3.706;2022-08-18T06:12:55;20.70;99.90
56046;DHT22;41913;51.030;3.706;2022-08-18T06:15:37;20.90;99.90
56046;DHT22;41913;51.030;3.706;2022-08-18T06:30:19;21.60;99.90
56046;DHT22;41913;51.030;3.706;2022-08-18T06:35:58;21.60;99.90
56046;DHT22;41913;51.030;3.706;2022-08-18T06:41:15;21.80;99.90
56046;DHT22;41913;51.030;3.706;2022-08-18T06:47:01;21.90;99.90
56046;DHT22;41913;51.030;3.706;2022-08-18T06:54:53;21.90;99.90
56046;DHT22;41913;51.030;3.706;2022-08-18T06:57:30;22.20;99.90
56046;DHT22;41913;51.030;3.706;2022-08-18T07:00:09;22.50;99.90
56046;DHT22;41913;51.030;3.706;2022-08-18T07:05:24;23.00;99.90
56046;DHT22;41913;51.030;3.706;2022-08-18T07:08:08;23.30;99.90
56046;DHT22;41913;51.030;3.706;2022-08-18T07:10:44;23.50;99.90
56046;DHT22;41913;51.030;3.706;2022-08-18T07:13:25;24.20;99.90
56046;DHT22;41913;51.030;3.706;2022-08-18T07:15:55;24.70;99.90
56046;DHT22;41913;51.030;3.706;2022-08-18T07:18:38;25.30;99.90
56046;DHT22;41913;51.030;3.706;2022-08-18T07:21:27;25.60;99.90
56046;DHT22;41913;51.030;3.706;2022-08-18T07:24:11;26.40;99.90
56046;DHT22;41913;51.030;3.706;2022-08-18T07:27:16;27.70;99.90
56046;DHT22;41913;51.030;3.706;2022-08-18T07:32:38;30.00;99.90
56046;DHT22;41913;51.030;3.706;2022-08-18T07:35:08;30.40;99.10
56046;DHT22;41913;51.030;3.706;2022-08-18T07:37:42;30.90;98.50
56046;DHT22;41913;51.030;3.706;2022-08-18T07:40:35;31.50;97.20
56046;DHT22;41913;51.030;3.706;2022-08-18T07:43:19;31.20;95.30
56046;DHT22;41913;51.030;3.706;2022-08-18T07:45:47;30.50;96.40
56046;DHT22;41913;51.030;3.706;2022-08-18T07:48:32;30.50;96.60
56046;DHT22;41913;51.030;3.706;2022-08-18T07:51:24;30.40;96.80
56046;DHT22;41913;51.030;3.706;2022-08-18T07:59:34;29.80;97.50
56046;DHT22;41913;51.030;3.706;2022-08-18T08:05:06;29.00;98.90
56046;DHT22;41913;51.030;3.706;2022-08-18T08:07:50;28.50;99.60
56046;DHT22;41913;51.030;3.706;2022-08-18T08:10:47;28.20;99.90
56046;DHT22;41913;51.030;3.706;2022-08-18T08:16:04;30.80;98.20
56046;DHT22;41913;51.030;3.706;2022-08-18T08:21:31;31.80;95.10
56046;DHT22;41913;51.030;3.706;2022-08-18T08:27:11;31.00;95.50
56046;DHT22;41913;51.030;3.706;2022-08-18T08:30:09;31.20;95.60
56046;DHT22;41913;51.030;3.706;2022-08-18T08:33:04;32.00;94.80
56046;DHT22;41913;51.030;3.706;2022-08-18T08:35:48;33.50;93.10
56046;DHT22;41913;51.030;3.706;2022-08-18T08:38:24;33.70;91.20
56046;DHT22;41913;51.030;3.706;2022-08-18T08:40:58;33.20;91.70
56046;DHT22;41913;51.030;3.706;2022-08-18T08:43:33;32.10;92.20
56046;DHT22;41913;51.030;3.706;2022-08-18T08:46:12;31.50;93.20
56046;DHT22;41913;51.030;3.706;2022-08-18T08:48:51;30.80;94.20
56046;DHT22;41913;51.030;3.706;2022-08-18T08:51:43;30.80;94.40
56046;DHT22;41913;51.030;3.706;2022-08-18T08:54:39;31.90;93.70
56046;DHT22;41913;51.030;3.706;2022-08-18T08:57:08;33.40;91.40
56046;DHT22;41913;51.030;3.706;2022-08-18T08:59:38;34.50;90.20
56046;DHT22;41913;51.030;3.706;2022-08-18T09:02:32;35.90;87.60
56046;DHT22;41913;51.030;3.706;2022-08-18T09:05:22;36.60;83.10
56046;DHT22;41913;51.030;3.706;2022-08-18T09:08:16;35.90;82.10
56046;DHT22;41913;51.030;3.706;2022-08-18T09:13:47;38.50;76.50
56046;DHT22;41913;51.030;3.706;2022-08-18T09:24:52;40.20;68.30
56046;DHT22;41913;51.030;3.706;2022-08-18T09:38:24;42.70;62.00
56046;DHT22;41913;51.030;3.706;2022-08-18T09:41:32;42.50;61.00
56046;DHT22;41913;51.030;3.706;2022-08-18T09:44:09;42.80;60.50
56046;DHT22;41913;51.030;3.706;2022-08-18T09:51:58;40.40;60.50
56046;DHT22;41913;51.030;3.706;2022-08-18T09:54:31;39.10;62.50
56046;DHT22;41913;51.030;3.706;2022-08-18T10:11:12;34.30;69.60
56046;DHT22;41913;51.030;3.706;2022-08-18T10:16:32;34.30;69.30
56046;DHT22;41913;51.030;3.706;2022-08-18T10:19:25;34.20;68.80
56046;DHT22;41913;51.030;3.706;2022-08-18T10:24:40;33.30;70.90
56046;DHT22;41913;51.030;3.706;2022-08-18T10:33:05;34.90;68.40
56046;DHT22;41913;51.030;3.706;2022-08-18T10:38:14;37.00;65.40
56046;DHT22;41913;51.030;3.706;2022-08-18T10:40:42;37.40;65.00
56046;DHT22;41913;51.030;3.706;2022-08-18T10:43:48;37.40;64.70
56046;DHT22;41913;51.030;3.706;2022-08-18T10:46:18;36.40;65.70
56046;DHT22;41913;51.030;3.706;2022-08-18T10:48:59;37.00;66.10
56046;DHT22;41913;51.030;3.706;2022-08-18T11:00:13;38.10;64.10
56046;DHT22;41913;51.030;3.706;2022-08-18T11:03:05;37.20;63.60
56046;DHT22;41913;51.030;3.706;2022-08-18T11:05:35;36.80;64.20
56046;DHT22;41913;51.030;3.706;2022-08-18T11:08:05;36.80;64.20
56046;DHT22;41913;51.030;3.706;2022-08-18T11:10:41;36.40;64.60
56046;DHT22;41913;51.030;3.706;2022-08-18T11:13:35;35.70;65.00
56046;DHT22;41913;51.030;3.706;2022-08-18T11:18:47;34.70;66.60
56046;DHT22;41913;51.030;3.706;2022-08-18T11:26:41;33.80;68.60
56046;DHT22;41913;51.030;3.706;2022-08-18T11:34:40;32.40;70.80
56046;DHT22;41913;51.030;3.706;2022-08-18T11:38:10;32.20;71.90
56046;DHT22;41913;51.030;3.706;2022-08-18T11:43:23;32.20;69.60
56046;DHT22;41913;51.030;3.706;2022-08-18T11:45:54;31.70;69.60
56046;DHT22;41913;51.030;3.706;2022-08-18T11:48:41;31.40;71.00
56046;DHT22;41913;51.030;3.706;2022-08-18T11:51:23;31.40;71.00
56046;DHT22;41913;51.030;3.706;2022-08-18T11:58:59;30.90;72.70
56046;DHT22;41913;51.030;3.706;2022-08-18T12:07:01;30.50;75.20
56046;DHT22;41913;51.030;3.706;2022-08-18T12:10:06;30.60;74.20
56046;DHT22;41913;51.030;3.706;2022-08-18T12:12:33;30.90;74.10
56046;DHT22;41913;51.030;3.706;2022-08-18T12:17:41;31.00;74.20
56046;DHT22;41913;51.030;3.706;2022-08-18T12:20:10;30.80;74.50
56046;DHT22;41913;51.030;3.706;2022-08-18T12:22:39;30.80;74.40
56046;DHT22;41913;51.030;3.706;2022-08-18T12:25:07;30.70;73.90
56046;DHT22;41913;51.030;3.706;2022-08-18T12:27:34;30.90;74.00
56046;DHT22;41913;51.030;3.706;2022-08-18T12:30:04;30.80;73.50
56046;DHT22;41913;51.030;3.706;2022-08-18T12:32:34;30.60;73.60
56046;DHT22;41913;51.030;3.706;2022-08-18T12:35:01;30.50;74.20
56046;DHT22;41913;51.030;3.706;2022-08-18T12:37:30;30.30;74.30
56046;DHT22;41913;51.030;3.706;2022-08-18T12:39:59;30.20;74.80
56046;DHT22;41913;51.030;3.706;2022-08-18T12:42:28;30.00;74.60
56046;DHT22;41913;51.030;3.706;2022-08-18T12:44:58;29.90;75.20
56046;DHT22;41913;51.030;3.706;2022-08-18T12:47:26;30.00;75.80
56046;DHT22;41913;51.030;3.706;2022-08-18T12:49:54;29.80;76.30
56046;DHT22;41913;51.030;3.706;2022-08-18T12:52:26;29.90;76.10
56046;DHT22;41913;51.030;3.706;2022-08-18T12:54:52;30.00;75.30
56046;DHT22;41913;51.030;3.706;2022-08-18T12:57:25;29.90;75.60
56046;DHT22;41913;51.030;3.706;2022-08-18T12:59:53;30.00;73.10
56046;DHT22;41913;51.030;3.706;2022-08-18T13:02:20;30.30;72.50
56046;DHT22;41913;51.030;3.706;2022-08-18T13:04:47;30.40;72.70
56046;DHT22;41913;51.030;3.706;2022-08-18T13:07:15;30.30;72.80
56046;DHT22;41913;51.030;3.706;2022-08-18T13:09:41;30.40;72.60
56046;DHT22;41913;51.030;3.706;2022-08-18T13:12:18;30.50;73.80
56046;DHT22;41913;51.030;3.706;2022-08-18T13:14:45;30.20;73.50
56046;DHT22;41913;51.030;3.706;2022-08-18T13:17:12;30.20;71.50
56046;DHT22;41913;51.030;3.706;2022-08-18T13:19:41;30.00;72.10
56046;DHT22;41913;51.030;3.706;2022-08-18T13:22:07;29.60;73.30
56046;DHT22;41913;51.030;3.706;2022-08-18T13:24:33;29.00;74.70
56046;DHT22;41913;51.030;3.706;2022-08-18T13:27:01;28.90;75.30
56046;DHT22;41913;51.030;3.706;2022-08-18T13:29:28;29.20;74.70
56046;DHT22;41913;51.030;3.706;2022-08-18T13:31:55;29.50;74.00
56046;DHT22;41913;51.030;3.706;2022-08-18T13:34:24;29.80;73.30
56046;DHT22;41913;51.030;3.706;2022-08-18T13:36:53;29.40;74.20
56046;DHT22;41913;51.030;3.706;2022-08-18T13:39:21;29.30;74.50
56046;DHT22;41913;51.030;3.706;2022-08-18T13:41:50;29.30;74.60
56046;DHT22;41913;51.030;3.706;2022-08-18T13:44:18;29.20;75.00
56046;DHT22;41913;51.030;3.706;2022-08-18T13:46:46;29.30;75.40
56046;DHT22;41913;51.030;3.706;2022-08-18T13:49:17;29.60;76.10
56046;DHT22;41913;51.030;3.706;2022-08-18T13:51:44;29.90;76.30
56046;DHT22;41913;51.030;3.706;2022-08-18T13:54:23;29.60;76.60
56046;DHT22;41913;51.030;3.706;2022-08-18T13:56:50;29.40;77.60
56046;DHT22;41913;51.030;3.706;2022-08-18T13:59:16;29.20;77.70
56046;DHT22;41913;51.030;3.706;2022-08-18T14:01:42;29.20;77.70
56046;DHT22;41913;51.030;3.706;2022-08-18T14:04:10;29.70;76.50
56046;DHT22;41913;51.030;3.706;2022-08-18T14:06:37;30.10;74.90
56046;DHT22;41913;51.030;3.706;2022-08-18T14:09:03;30.20;75.70
56046;DHT22;41913;51.030;3.706;2022-08-18T14:11:30;30.30;74.80
56046;DHT22;41913;51.030;3.706;2022-08-18T14:13:57;30.60;74.10
56046;DHT22;41913;51.030;3.706;2022-08-18T14:16:24;30.70;73.60
56046;DHT22;41913;51.030;3.706;2022-08-18T14:18:50;30.40;74.00
56046;DHT22;41913;51.030;3.706;2022-08-18T14:21:43;30.20;74.40
56046;DHT22;41913;51.030;3.706;2022-08-18T14:24:33;30.00;75.10
56046;DHT22;41913;51.030;3.706;2022-08-18T14:27:28;30.20;75.80
56046;DHT22;41913;51.030;3.706;2022-08-18T14:29:56;29.50;75.80
56046;DHT22;41913;51.030;3.706;2022-08-18T14:32:22;28.90;77.60
56046;DHT22;41913;51.030;3.706;2022-08-18T14:34:48;29.00;77.80
56046;DHT22;41913;51.030;3.706;2022-08-18T14:37:14;29.00;77.70
56046;DHT22;41913;51.030;3.706;2022-08-18T14:39:40;29.10;77.40
56046;DHT22;41913;51.030;3.706;2022-08-18T14:42:06;29.20;76.80
56046;DHT22;41913;51.030;3.706;2022-08-18T14:44:32;29.20;76.90
56046;DHT22;41913;51.030;3.706;2022-08-18T14:46:58;28.70;77.90
56046;DHT22;41913;51.030;3.706;2022-08-18T14:49:24;28.90;78.10
56046;DHT22;41913;51.030;3.706;2022-08-18T14:51:50;28.90;78.50
56046;DHT22;41913;51.030;3.706;2022-08-18T14:54:16;28.70;78.80
56046;DHT22;41913;51.030;3.706;2022-08-18T14:56:45;28.70;79.40
56046;DHT22;41913;51.030;3.706;2022-08-18T14:59:10;28.80;80.20
56046;DHT22;41913;51.030;3.706;2022-08-18T15:01:36;28.80;79.30
56046;DHT22;41913;51.030;3.706;2022-08-18T15:04:04;28.80;79.00
56046;DHT22;41913;51.030;3.706;2022-08-18T15:06:29;28.70;79.10
56046;DHT22;41913;51.030;3.706;2022-08-18T15:08:56;28.50;79.90
56046;DHT22;41913;51.030;3.706;2022-08-18T15:11:22;28.70;79.90
56046;DHT22;41913;51.030;3.706;2022-08-18T15:13:47;28.70;80.00
56046;DHT22;41913;51.030;3.706;2022-08-18T15:16:14;28.80;78.90
56046;DHT22;41913;51.030;3.706;2022-08-18T15:18:44;28.70;80.00
56046;DHT22;41913;51.030;3.706;2022-08-18T15:21:11;28.70;80.10
56046;DHT22;41913;51.030;3.706;2022-08-18T15:23:56;28.50;79.40
56046;DHT22;41913;51.030;3.706;2022-08-18T15:26:41;28.40;80.10
56046;DHT22;41913;51.030;3.706;2022-08-18T15:29:09;28.30;80.40
56046;DHT22;41913;51.030;3.706;2022-08-18T15:31:36;28.20;81.10
56046;DHT22;41913;51.030;3.706;2022-08-18T15:34:02;28.20;81.20
56046;DHT22;41913;51.030;3.706;2022-08-18T15:36:28;28.30;81.00
56046;DHT22;41913;51.030;3.706;2022-08-18T15:38:59;28.20;81.40
56046;DHT22;41913;51.030;3.706;2022-08-18T15:41:34;28.20;81.50
56046;DHT22;41913;51.030;3.706;2022-08-18T15:44:02;28.10;81.30
56046;DHT22;41913;51.030;3.706;2022-08-18T15:46:31;28.20;81.50
56046;DHT22;41913;51.030;3.706;2022-08-18T15:48:58;28.30;81.50
56046;DHT22;41913;51.030;3.706;2022-08-18T15:51:24;28.20;81.90
56046;DHT22;41913;51.030;3.706;2022-08-18T15:53:50;28.40;81.70
56046;DHT22;41913;51.030;3.706;2022-08-18T15:56:21;28.70;81.10
56046;DHT22;41913;51.030;3.706;2022-08-18T15:58:49;28.40;81.00
56046;DHT22;41913;51.030;3.706;2022-08-18T16:01:16;28.60;81.50
56046;DHT22;41913;51.030;3.706;2022-08-18T16:03:43;28.50;81.40
56046;DHT22;41913;51.030;3.706;2022-08-18T16:06:19;28.60;81.50
56046;DHT22;41913;51.030;3.706;2022-08-18T16:08:48;28.70;81.10
56046;DHT22;41913;51.030;3.706;2022-08-18T16:11:15;28.70;81.00
56046;DHT22;41913;51.030;3.706;2022-08-18T16:13:42;28.60;81.20
56046;DHT22;41913;51.030;3.706;2022-08-18T16:16:14;28.50;81.70
56046;DHT22;41913;51.030;3.706;2022-08-18T16:18:40;28.40;81.70
56046;DHT22;41913;51.030;3.706;2022-08-18T16:21:08;28.70;81.60
56046;DHT22;41913;51.030;3.706;2022-08-18T16:23:40;28.80;81.50
56046;DHT22;41913;51.030;3.706;2022-08-18T16:26:07;28.80;81.60
56046;DHT22;41913;51.030;3.706;2022-08-18T16:28:34;29.10;81.10
56046;DHT22;41913;51.030;3.706;2022-08-18T16:31:00;29.10;80.60
56046;DHT22;41913;51.030;3.706;2022-08-18T16:33:27;29.00;78.90
56046;DHT22;41913;51.030;3.706;2022-08-18T16:36:02;28.40;79.30
56046;DHT22;41913;51.030;3.706;2022-08-18T16:38:30;28.20;80.20
56046;DHT22;41913;51.030;3.706;2022-08-18T16:40:55;28.30;80.60
56046;DHT22;41913;51.030;3.706;2022-08-18T16:43:22;28.70;80.70
56046;DHT22;41913;51.030;3.706;2022-08-18T16:45:48;28.90;80.30
56046;DHT22;41913;51.030;3.706;2022-08-18T16:48:14;29.20;80.00
56046;DHT22;41913;51.030;3.706;2022-08-18T16:50:43;29.50;79.50
56046;DHT22;41913;51.030;3.706;2022-08-18T16:53:09;29.50;79.30
56046;DHT22;41913;51.030;3.706;2022-08-18T16:55:35;29.50;79.40
56046;DHT22;41913;51.030;3.706;2022-08-18T16:58:01;29.60;79.60
56046;DHT22;41913;51.030;3.706;2022-08-18T17:00:47;29.80;79.40
56046;DHT22;41913;51.030;3.706;2022-08-18T17:03:31;29.90;79.10
56046;DHT22;41913;51.030;3.706;2022-08-18T17:06:17;30.20;78.40
56046;DHT22;41913;51.030;3.706;2022-08-18T17:08:44;30.00;78.20
56046;DHT22;41913;51.030;3.706;2022-08-18T17:11:15;29.50;79.10
56046;DHT22;41913;51.030;3.706;2022-08-18T17:13:42;29.20;80.10
56046;DHT22;41913;51.030;3.706;2022-08-18T17:16:09;28.50;80.90
56046;DHT22;41913;51.030;3.706;2022-08-18T17:18:37;28.30;81.80
56046;DHT22;41913;51.030;3.706;2022-08-18T17:21:05;28.30;82.10
56046;DHT22;41913;51.030;3.706;2022-08-18T17:23:31;28.40;82.10
56046;DHT22;41913;51.030;3.706;2022-08-18T17:25:58;28.30;82.80
56046;DHT22;41913;51.030;3.706;2022-08-18T17:29:13;28.20;83.00
56046;DHT22;41913;51.030;3.706;2022-08-18T17:31:20;28.00;83.40
56046;DHT22;41913;51.030;3.706;2022-08-18T17:33:51;27.80;83.70
56046;DHT22;41913;51.030;3.706;2022-08-18T17:36:22;27.80;84.20
56046;DHT22;41913;51.030;3.706;2022-08-18T17:38:58;28.00;84.40
56046;DHT22;41913;51.030;3.706;2022-08-18T17:41:26;28.30;83.80
56046;DHT22;41913;51.030;3.706;2022-08-18T17:43:56;28.40;83.30
56046;DHT22;41913;51.030;3.706;2022-08-18T17:46:36;28.50;82.70
56046;DHT22;41913;51.030;3.706;2022-08-18T17:49:12;28.30;83.10
56046;DHT22;41913;51.030;3.706;2022-08-18T17:51:47;27.90;83.80
56046;DHT22;41913;51.030;3.706;2022-08-18T17:54:18;27.70;84.10
56046;DHT22;41913;51.030;3.706;2022-08-18T17:56:52;27.50;85.00
56046;DHT22;41913;51.030;3.706;2022-08-18T17:59:33;27.40;85.40
56046;DHT22;41913;51.030;3.706;2022-08-18T18:02:13;27.30;85.70
56046;DHT22;41913;51.030;3.706;2022-08-18T18:04:40;27.20;86.10
56046;DHT22;41913;51.030;3.706;2022-08-18T18:10:12;26.90;86.70
56046;DHT22;41913;51.030;3.706;2022-08-18T18:15:33;26.60;87.50
56046;DHT22;41913;51.030;3.706;2022-08-18T18:23:45;26.40;88.00
56046;DHT22;41913;51.030;3.706;2022-08-18T18:31:57;26.20;88.60
56046;DHT22;41913;51.030;3.706;2022-08-18T18:37:00;26.00;89.00
56046;DHT22;41913;51.030;3.706;2022-08-18T18:39:33;25.90;89.40
56046;DHT22;41913;51.030;3.706;2022-08-18T18:42:20;25.80;90.00
56046;DHT22;41913;51.030;3.706;2022-08-18T18:44:54;25.70;90.10
56046;DHT22;41913;51.030;3.706;2022-08-18T18:47:43;25.60;90.30
56046;DHT22;41913;51.030;3.706;2022-08-18T18:56:27;25.30;90.60